CDT,Max TemperatureF,Mean TemperatureF,Min TemperatureF,Max Dew PointF,MeanDew PointF,Min DewpointF,Max Humidity, Mean Humidity, Min Humidity, Max Sea Level PressureIn, Mean Sea Level PressureIn, Min Sea Level PressureIn, Max VisibilityMiles, Mean VisibilityMiles, Min VisibilityMiles, Max Wind SpeedMPH, Mean Wind SpeedMPH, Max Gust SpeedMPH,PrecipitationIn, CloudCover, Events, WindDirDegrees
2011-10-1,64,53,42,45,39,32,100,63,32,30.19,30.13,30.04,10,10,10,17,4,24,0.00,0,,10
2011-10-2,69,54,39,45,37,30,100,62,23,30.23,30.19,30.16,10,10,10,12,4,17,0.00,0,,353
2011-10-3,73,55,37,46,39,32,100,65,22,30.29,30.23,30.19,10,10,7,12,2,,0.00,0,,334
2011-10-4,78,60,41,52,43,36,100,65,21,30.33,30.26,30.21,10,10,10,9,1,,0.00,0,,44
2011-10-5,80,62,44,54,47,45,100,67,28,30.29,30.24,30.17,10,10,10,8,1,,0.00,0,,74
2011-10-6,82,65,48,59,51,46,100,68,28,30.29,30.23,30.20,10,9,2,13,2,17,0.00,0,,135
2011-10-7,80,65,50,55,52,48,100,67,32,30.38,30.30,30.26,10,8,1,13,2,17,0.00,0,,119
2011-10-8,80,65,50,54,51,48,100,61,32,30.38,30.32,30.27,10,10,1,16,6,21,0.00,0,,115
2011-10-9,78,63,48,54,51,46,100,68,36,30.31,30.25,30.17,10,10,10,20,4,29,0.00,0,,113
2011-10-10,80,70,59,63,57,54,100,70,42,30.17,30.10,30.02,10,10,10,17,3,23,0.00,6,Rain,96
2011-10-11,66,64,62,63,62,57,100,95,73,30.02,29.98,29.93,10,9,3,10,4,,0.00,8,Rain,73
2011-10-12,68,64,60,63,60,59,100,88,73,29.92,29.87,29.78,10,10,10,8,1,,0.00,8,,160
2011-10-13,73,66,59,63,58,50,100,82,46,29.78,29.71,29.67,10,9,3,16,5,25,0.00,6,Rain,268
2011-10-14,78,64,50,52,44,36,100,56,21,29.97,29.90,29.80,10,10,10,18,5,26,0.00,0,,273
2011-10-15,77,62,46,50,41,30,100,53,19,30.14,30.09,30.00,10,10,10,17,3,21,0.00,0,,320
2011-10-16,86,64,42,50,44,37,100,60,18,30.17,30.10,30.00,10,10,10,16,4,23,0.00,0,,224
2011-10-17,86,68,50,55,51,45,100,63,25,30.01,29.95,29.85,10,10,10,12,3,17,0.00,0,,237
2011-10-18,78,64,50,61,53,48,100,76,41,29.82,29.72,29.58,10,10,2,20,5,31,0.00,3,Rain,230
2011-10-19,51,48,44,46,41,37,100,79,58,29.80,29.70,29.66,10,10,4,23,13,32,0.00,8,Rain,307
2011-10-20,59,50,41,41,36,32,87,63,36,30.08,29.96,29.84,10,10,10,18,10,24,0.00,3,,267
2011-10-21,62,48,33,39,34,30,100,67,30,30.22,30.16,30.10,10,10,10,12,3,18,0.00,0,,298
2011-10-22,68,50,32,43,35,30,100,69,26,30.24,30.17,30.12,10,10,1,6,0,,0.00,0,,38
2011-10-23,68,52,35,52,38,34,100,67,28,30.14,30.10,30.06,10,10,10,13,2,17,0.00,2,,180
2011-10-24,73,57,41,52,47,41,100,74,33,30.23,30.18,30.13,10,8,0,8,2,,0.00,3,Fog,311
2011-10-25,78,60,41,54,44,36,100,68,22,30.28,30.20,30.09,10,9,0,9,1,,0.00,1,Fog,191
2011-10-26,77,60,44,52,45,41,94,57,28,30.10,30.02,29.94,10,10,10,15,4,22,0.00,0,,213
2011-10-27,68,60,51,55,51,46,100,72,59,30.02,29.93,29.89,10,10,4,18,7,20,0.00,5,Rain,265
2011-10-28,51,48,44,46,45,41,100,90,81,30.13,30.04,29.98,10,9,5,15,9,21,0.00,8,Rain,21
2011-10-29,60,46,32,39,34,28,100,75,29,30.23,30.17,30.14,10,10,7,12,3,18,0.00,0,,319
2011-10-30,62,47,32,43,33,28,100,71,27,30.31,30.23,30.17,10,10,5,10,2,,0.00,0,,185
2011-10-31,66,50,35,37,34,30,100,64,26,30.23,30.20,30.17,10,10,7,9,3,17,0.00,0,,237